sensor_id;sensor_type;location;lat;lon;timestamp;P1;durP1;ratioP1;P2;durP2;ratioP2
41799;SDS011;27468;47.460;19.034;2022-11-20T00:01:14;22.10;;;10.10;;
41799;SDS011;27468;47.460;19.034;2022-11-20T00:03:42;27.23;;;11.10;;
41799;SDS011;27468;47.460;19.034;2022-11-20T00:06:09;25.63;;;11.43;;
41799;SDS011;27468;47.460;19.034;2022-11-20T00:08:37;27.10;;;12.33;;
41799;SDS011;27468;47.460;19.034;2022-11-20T00:11:06;31.17;;;12.33;;
41799;SDS011;27468;47.460;19.034;2022-11-20T00:13:35;25.03;;;10.80;;
41799;SDS011;27468;47.460;19.034;2022-11-20T00:16:04;27.60;;;12.20;;
41799;SDS011;27468;47.460;19.034;2022-11-20T00:18:32;26.93;;;12.27;;
41799;SDS011;27468;47.460;19.034;2022-11-20T00:21:04;29.13;;;12.67;;
41799;SDS011;27468;47.460;19.034;2022-11-20T00:23:32;27.30;;;12.40;;
41799;SDS011;27468;47.460;19.034;2022-11-20T00:26:01;25.27;;;12.63;;
41799;SDS011;27468;47.460;19.034;2022-11-20T00:28:30;31.00;;;13.33;;
41799;SDS011;27468;47.460;19.034;2022-11-20T00:33:32;27.10;;;12.40;;
41799;SDS011;27468;47.460;19.034;2022-11-20T00:35:59;28.37;;;12.07;;
41799;SDS011;27468;47.460;19.034;2022-11-20T00:38:32;27.60;;;12.93;;
41799;SDS011;27468;47.460;19.034;2022-11-20T00:40:59;27.00;;;12.23;;
41799;SDS011;27468;47.460;19.034;2022-11-20T00:43:26;27.00;;;11.90;;
41799;SDS011;27468;47.460;19.034;2022-11-20T00:45:59;29.00;;;13.07;;
41799;SDS011;27468;47.460;19.034;2022-11-20T00:48:25;28.17;;;12.20;;
41799;SDS011;27468;47.460;19.034;2022-11-20T00:50:51;26.37;;;12.63;;
41799;SDS011;27468;47.460;19.034;2022-11-20T00:53:17;26.10;;;12.33;;
41799;SDS011;27468;47.460;19.034;2022-11-20T00:55:43;26.10;;;11.73;;
41799;SDS011;27468;47.460;19.034;2022-11-20T00:58:08;25.83;;;11.77;;
41799;SDS011;27468;47.460;19.034;2022-11-20T01:00:34;25.00;;;10.70;;
41799;SDS011;27468;47.460;19.034;2022-11-20T01:02:59;23.60;;;10.73;;
41799;SDS011;27468;47.460;19.034;2022-11-20T01:05:25;23.60;;;10.70;;
41799;SDS011;27468;47.460;19.034;2022-11-20T01:07:50;23.83;;;10.60;;
41799;SDS011;27468;47.460;19.034;2022-11-20T01:10:15;24.43;;;10.57;;
41799;SDS011;27468;47.460;19.034;2022-11-20T01:12:42;23.17;;;10.40;;
41799;SDS011;27468;47.460;19.034;2022-11-20T01:15:07;24.20;;;11.03;;
41799;SDS011;27468;47.460;19.034;2022-11-20T01:17:33;24.47;;;10.67;;
41799;SDS011;27468;47.460;19.034;2022-11-20T01:19:58;25.07;;;11.27;;
41799;SDS011;27468;47.460;19.034;2022-11-20T01:22:24;20.60;;;8.83;;
41799;SDS011;27468;47.460;19.034;2022-11-20T01:24:49;29.57;;;12.97;;
41799;SDS011;27468;47.460;19.034;2022-11-20T01:27:15;31.30;;;13.47;;
41799;SDS011;27468;47.460;19.034;2022-11-20T01:29:40;30.87;;;12.40;;
41799;SDS011;27468;47.460;19.034;2022-11-20T01:32:05;28.97;;;11.03;;
41799;SDS011;27468;47.460;19.034;2022-11-20T01:34:31;32.80;;;12.80;;
41799;SDS011;27468;47.460;19.034;2022-11-20T01:36:56;36.17;;;13.73;;
41799;SDS011;27468;47.460;19.034;2022-11-20T01:39:23;30.20;;;11.67;;
41799;SDS011;27468;47.460;19.034;2022-11-20T01:41:50;34.50;;;13.93;;
41799;SDS011;27468;47.460;19.034;2022-11-20T01:44:50;35.60;;;13.77;;
41799;SDS011;27468;47.460;19.034;2022-11-20T01:47:30;32.87;;;13.83;;
41799;SDS011;27468;47.460;19.034;2022-11-20T01:50:10;37.73;;;14.40;;
41799;SDS011;27468;47.460;19.034;2022-11-20T01:52:45;35.77;;;13.40;;
41799;SDS011;27468;47.460;19.034;2022-11-20T01:55:15;33.47;;;13.00;;
41799;SDS011;27468;47.460;19.034;2022-11-20T01:57:44;35.40;;;14.30;;
41799;SDS011;27468;47.460;19.034;2022-11-20T02:00:13;34.93;;;15.00;;
41799;SDS011;27468;47.460;19.034;2022-11-20T02:02:43;38.00;;;14.77;;
41799;SDS011;27468;47.460;19.034;2022-11-20T02:08:10;31.67;;;12.10;;
41799;SDS011;27468;47.460;19.034;2022-11-20T02:10:37;37.70;;;15.33;;
41799;SDS011;27468;47.460;19.034;2022-11-20T02:13:04;34.60;;;11.83;;
41799;SDS011;27468;47.460;19.034;2022-11-20T02:15:48;39.67;;;15.27;;
41799;SDS011;27468;47.460;19.034;2022-11-20T02:18:14;37.93;;;14.90;;
41799;SDS011;27468;47.460;19.034;2022-11-20T02:20:44;40.60;;;15.37;;
41799;SDS011;27468;47.460;19.034;2022-11-20T02:23:35;38.90;;;14.60;;
41799;SDS011;27468;47.460;19.034;2022-11-20T02:25:57;40.30;;;15.57;;
41799;SDS011;27468;47.460;19.034;2022-11-20T02:28:26;37.53;;;14.03;;
41799;SDS011;27468;47.460;19.034;2022-11-20T02:30:51;39.33;;;15.30;;
41799;SDS011;27468;47.460;19.034;2022-11-20T02:33:16;41.13;;;16.20;;
41799;SDS011;27468;47.460;19.034;2022-11-20T02:35:43;42.87;;;16.90;;
41799;SDS011;27468;47.460;19.034;2022-11-20T02:38:12;38.30;;;14.77;;
41799;SDS011;27468;47.460;19.034;2022-11-20T02:40:39;47.10;;;17.13;;
41799;SDS011;27468;47.460;19.034;2022-11-20T02:43:05;39.13;;;16.10;;
41799;SDS011;27468;47.460;19.034;2022-11-20T02:45:30;37.00;;;16.40;;
41799;SDS011;27468;47.460;19.034;2022-11-20T02:47:57;39.93;;;15.03;;
41799;SDS011;27468;47.460;19.034;2022-11-20T02:50:22;38.23;;;15.20;;
41799;SDS011;27468;47.460;19.034;2022-11-20T02:52:47;36.03;;;14.97;;
41799;SDS011;27468;47.460;19.034;2022-11-20T02:55:13;36.50;;;14.50;;
41799;SDS011;27468;47.460;19.034;2022-11-20T02:57:38;36.80;;;13.87;;
41799;SDS011;27468;47.460;19.034;2022-11-20T03:00:04;35.33;;;14.77;;
41799;SDS011;27468;47.460;19.034;2022-11-20T03:02:31;33.03;;;14.03;;
41799;SDS011;27468;47.460;19.034;2022-11-20T03:04:57;35.97;;;14.90;;
41799;SDS011;27468;47.460;19.034;2022-11-20T03:07:23;34.93;;;14.83;;
41799;SDS011;27468;47.460;19.034;2022-11-20T03:09:49;33.57;;;14.07;;
41799;SDS011;27468;47.460;19.034;2022-11-20T03:12:14;34.33;;;13.73;;
41799;SDS011;27468;47.460;19.034;2022-11-20T03:14:39;40.23;;;16.13;;
41799;SDS011;27468;47.460;19.034;2022-11-20T03:17:05;36.33;;;15.63;;
41799;SDS011;27468;47.460;19.034;2022-11-20T03:19:30;32.67;;;14.37;;
41799;SDS011;27468;47.460;19.034;2022-11-20T03:21:56;36.23;;;14.87;;
41799;SDS011;27468;47.460;19.034;2022-11-20T03:24:21;36.33;;;15.40;;
41799;SDS011;27468;47.460;19.034;2022-11-20T03:26:46;34.77;;;13.87;;
41799;SDS011;27468;47.460;19.034;2022-11-20T03:29:15;35.23;;;14.57;;
41799;SDS011;27468;47.460;19.034;2022-11-20T03:31:40;33.77;;;13.87;;
41799;SDS011;27468;47.460;19.034;2022-11-20T03:34:06;34.53;;;15.37;;
41799;SDS011;27468;47.460;19.034;2022-11-20T03:36:33;34.67;;;13.70;;
41799;SDS011;27468;47.460;19.034;2022-11-20T03:38:59;34.03;;;14.60;;
41799;SDS011;27468;47.460;19.034;2022-11-20T03:41:31;33.17;;;14.43;;
41799;SDS011;27468;47.460;19.034;2022-11-20T03:44:01;34.03;;;14.25;;
41799;SDS011;27468;47.460;19.034;2022-11-20T03:46:28;37.10;;;15.30;;
41799;SDS011;27468;47.460;19.034;2022-11-20T03:48:53;37.13;;;14.87;;
41799;SDS011;27468;47.460;19.034;2022-11-20T03:51:20;33.40;;;14.33;;
41799;SDS011;27468;47.460;19.034;2022-11-20T03:53:47;33.77;;;14.83;;
41799;SDS011;27468;47.460;19.034;2022-11-20T03:56:14;32.07;;;13.17;;
41799;SDS011;27468;47.460;19.034;2022-11-20T03:58:41;34.33;;;14.70;;
41799;SDS011;27468;47.460;19.034;2022-11-20T04:01:08;32.70;;;14.63;;
41799;SDS011;27468;47.460;19.034;2022-11-20T04:03:35;32.53;;;13.87;;
41799;SDS011;27468;47.460;19.034;2022-11-20T04:06:06;32.38;;;13.70;;
41799;SDS011;27468;47.460;19.034;2022-11-20T04:08:33;32.60;;;14.63;;
41799;SDS011;27468;47.460;19.034;2022-11-20T04:13:41;29.37;;;13.80;;
41799;SDS011;27468;47.460;19.034;2022-11-20T04:16:08;32.13;;;13.70;;
41799;SDS011;27468;47.460;19.034;2022-11-20T04:18:35;30.70;;;14.37;;
41799;SDS011;27468;47.460;19.034;2022-11-20T04:21:01;34.03;;;14.53;;
41799;SDS011;27468;47.460;19.034;2022-11-20T04:23:27;34.73;;;15.00;;
41799;SDS011;27468;47.460;19.034;2022-11-20T04:25:53;33.30;;;14.37;;
41799;SDS011;27468;47.460;19.034;2022-11-20T04:28:19;33.90;;;14.50;;
41799;SDS011;27468;47.460;19.034;2022-11-20T04:30:44;31.17;;;14.47;;
41799;SDS011;27468;47.460;19.034;2022-11-20T04:33:10;34.65;;;14.07;;
41799;SDS011;27468;47.460;19.034;2022-11-20T04:35:36;31.57;;;14.77;;
41799;SDS011;27468;47.460;19.034;2022-11-20T04:38:03;29.77;;;13.43;;
41799;SDS011;27468;47.460;19.034;2022-11-20T04:40:29;32.43;;;14.97;;
41799;SDS011;27468;47.460;19.034;2022-11-20T04:42:55;35.70;;;15.18;;
41799;SDS011;27468;47.460;19.034;2022-11-20T04:45:24;31.00;;;13.97;;
41799;SDS011;27468;47.460;19.034;2022-11-20T04:47:49;32.10;;;14.20;;
41799;SDS011;27468;47.460;19.034;2022-11-20T04:50:15;34.37;;;14.87;;
41799;SDS011;27468;47.460;19.034;2022-11-20T04:52:40;34.95;;;14.63;;
41799;SDS011;27468;47.460;19.034;2022-11-20T04:55:06;32.53;;;14.30;;
41799;SDS011;27468;47.460;19.034;2022-11-20T04:57:32;32.47;;;14.40;;
41799;SDS011;27468;47.460;19.034;2022-11-20T04:59:57;34.90;;;15.33;;
41799;SDS011;27468;47.460;19.034;2022-11-20T05:02:23;33.47;;;15.43;;
41799;SDS011;27468;47.460;19.034;2022-11-20T05:04:48;33.70;;;14.53;;
41799;SDS011;27468;47.460;19.034;2022-11-20T05:07:14;33.73;;;13.93;;
41799;SDS011;27468;47.460;19.034;2022-11-20T05:09:40;34.10;;;14.73;;
41799;SDS011;27468;47.460;19.034;2022-11-20T05:12:07;33.73;;;14.70;;
41799;SDS011;27468;47.460;19.034;2022-11-20T05:14:33;36.10;;;15.27;;
41799;SDS011;27468;47.460;19.034;2022-11-20T05:16:59;35.23;;;16.90;;
41799;SDS011;27468;47.460;19.034;2022-11-20T05:19:24;35.07;;;14.80;;
41799;SDS011;27468;47.460;19.034;2022-11-20T05:21:50;29.73;;;12.63;;
41799;SDS011;27468;47.460;19.034;2022-11-20T05:24:15;35.47;;;14.43;;
41799;SDS011;27468;47.460;19.034;2022-11-20T05:26:41;34.67;;;14.63;;
41799;SDS011;27468;47.460;19.034;2022-11-20T05:29:06;32.63;;;13.40;;
41799;SDS011;27468;47.460;19.034;2022-11-20T05:31:31;33.83;;;13.97;;
41799;SDS011;27468;47.460;19.034;2022-11-20T05:33:57;33.37;;;14.47;;
41799;SDS011;27468;47.460;19.034;2022-11-20T05:36:22;33.27;;;13.97;;
41799;SDS011;27468;47.460;19.034;2022-11-20T05:38:48;33.70;;;14.37;;
41799;SDS011;27468;47.460;19.034;2022-11-20T05:41:15;32.70;;;14.07;;
41799;SDS011;27468;47.460;19.034;2022-11-20T05:43:43;31.33;;;14.73;;
41799;SDS011;27468;47.460;19.034;2022-11-20T05:46:10;30.43;;;14.17;;
41799;SDS011;27468;47.460;19.034;2022-11-20T05:48:38;35.57;;;15.97;;
41799;SDS011;27468;47.460;19.034;2022-11-20T05:51:05;35.87;;;15.20;;
41799;SDS011;27468;47.460;19.034;2022-11-20T05:53:33;33.37;;;14.07;;
41799;SDS011;27468;47.460;19.034;2022-11-20T05:56:02;32.77;;;15.03;;
41799;SDS011;27468;47.460;19.034;2022-11-20T05:58:30;28.70;;;13.40;;
41799;SDS011;27468;47.460;19.034;2022-11-20T06:01:13;30.50;;;13.93;;
41799;SDS011;27468;47.460;19.034;2022-11-20T06:03:41;34.30;;;14.03;;
41799;SDS011;27468;47.460;19.034;2022-11-20T06:06:08;31.23;;;13.98;;
41799;SDS011;27468;47.460;19.034;2022-11-20T06:08:34;32.10;;;13.70;;
41799;SDS011;27468;47.460;19.034;2022-11-20T06:11:03;30.15;;;13.90;;
41799;SDS011;27468;47.460;19.034;2022-11-20T06:13:35;29.23;;;12.70;;
41799;SDS011;27468;47.460;19.034;2022-11-20T06:16:02;30.92;;;12.73;;
41799;SDS011;27468;47.460;19.034;2022-11-20T06:18:28;30.93;;;13.90;;
41799;SDS011;27468;47.460;19.034;2022-11-20T06:23:31;27.83;;;12.53;;
41799;SDS011;27468;47.460;19.034;2022-11-20T06:25:58;28.60;;;12.83;;
41799;SDS011;27468;47.460;19.034;2022-11-20T06:28:26;24.87;;;12.13;;
41799;SDS011;27468;47.460;19.034;2022-11-20T06:30:52;24.60;;;11.32;;
41799;SDS011;27468;47.460;19.034;2022-11-20T06:33:17;25.80;;;11.65;;
41799;SDS011;27468;47.460;19.034;2022-11-20T06:35:42;25.30;;;11.85;;
41799;SDS011;27468;47.460;19.034;2022-11-20T06:38:08;25.60;;;12.03;;
41799;SDS011;27468;47.460;19.034;2022-11-20T06:40:33;25.93;;;12.33;;
41799;SDS011;27468;47.460;19.034;2022-11-20T06:42:59;26.00;;;11.87;;
41799;SDS011;27468;47.460;19.034;2022-11-20T06:45:24;28.58;;;12.65;;
41799;SDS011;27468;47.460;19.034;2022-11-20T06:47:49;27.80;;;12.47;;
41799;SDS011;27468;47.460;19.034;2022-11-20T06:50:15;29.63;;;13.20;;
41799;SDS011;27468;47.460;19.034;2022-11-20T06:52:40;33.63;;;18.97;;
41799;SDS011;27468;47.460;19.034;2022-11-20T06:55:06;28.90;;;13.18;;
41799;SDS011;27468;47.460;19.034;2022-11-20T06:57:31;29.08;;;12.88;;
41799;SDS011;27468;47.460;19.034;2022-11-20T06:59:57;28.08;;;11.90;;
41799;SDS011;27468;47.460;19.034;2022-11-20T07:02:22;26.17;;;11.90;;
41799;SDS011;27468;47.460;19.034;2022-11-20T07:04:48;25.80;;;12.05;;
41799;SDS011;27468;47.460;19.034;2022-11-20T07:07:13;28.33;;;13.45;;
41799;SDS011;27468;47.460;19.034;2022-11-20T07:09:38;27.13;;;12.70;;
41799;SDS011;27468;47.460;19.034;2022-11-20T07:12:04;27.10;;;12.55;;
41799;SDS011;27468;47.460;19.034;2022-11-20T07:14:30;25.83;;;12.10;;
41799;SDS011;27468;47.460;19.034;2022-11-20T07:16:55;26.13;;;12.80;;
41799;SDS011;27468;47.460;19.034;2022-11-20T07:19:20;24.80;;;12.55;;
41799;SDS011;27468;47.460;19.034;2022-11-20T07:21:46;28.52;;;13.13;;
41799;SDS011;27468;47.460;19.034;2022-11-20T07:24:11;32.08;;;14.88;;
41799;SDS011;27468;47.460;19.034;2022-11-20T07:26:37;32.15;;;15.68;;
41799;SDS011;27468;47.460;19.034;2022-11-20T07:29:02;32.00;;;14.73;;
41799;SDS011;27468;47.460;19.034;2022-11-20T07:31:28;32.03;;;14.20;;
41799;SDS011;27468;47.460;19.034;2022-11-20T07:33:53;29.25;;;13.57;;
41799;SDS011;27468;47.460;19.034;2022-11-20T07:36:19;27.55;;;12.55;;
41799;SDS011;27468;47.460;19.034;2022-11-20T07:38:44;26.80;;;13.43;;
41799;SDS011;27468;47.460;19.034;2022-11-20T07:41:10;28.80;;;14.48;;
41799;SDS011;27468;47.460;19.034;2022-11-20T07:43:35;28.02;;;13.75;;
41799;SDS011;27468;47.460;19.034;2022-11-20T07:46:01;31.17;;;14.43;;
41799;SDS011;27468;47.460;19.034;2022-11-20T07:48:26;29.05;;;14.10;;
41799;SDS011;27468;47.460;19.034;2022-11-20T07:50:57;31.83;;;13.88;;
41799;SDS011;27468;47.460;19.034;2022-11-20T07:53:23;29.20;;;13.77;;
41799;SDS011;27468;47.460;19.034;2022-11-20T07:55:49;27.42;;;13.40;;
41799;SDS011;27468;47.460;19.034;2022-11-20T07:58:17;29.00;;;14.23;;
41799;SDS011;27468;47.460;19.034;2022-11-20T08:00:43;27.63;;;13.00;;
41799;SDS011;27468;47.460;19.034;2022-11-20T08:03:08;27.65;;;13.43;;
41799;SDS011;27468;47.460;19.034;2022-11-20T08:05:33;30.15;;;13.13;;
41799;SDS011;27468;47.460;19.034;2022-11-20T08:07:59;25.08;;;12.93;;
41799;SDS011;27468;47.460;19.034;2022-11-20T08:10:25;25.70;;;13.48;;
41799;SDS011;27468;47.460;19.034;2022-11-20T08:12:51;27.60;;;12.98;;
41799;SDS011;27468;47.460;19.034;2022-11-20T08:15:36;26.83;;;12.82;;
41799;SDS011;27468;47.460;19.034;2022-11-20T08:18:04;27.58;;;12.88;;
41799;SDS011;27468;47.460;19.034;2022-11-20T08:20:31;26.40;;;13.52;;
41799;SDS011;27468;47.460;19.034;2022-11-20T08:22:57;30.77;;;13.52;;
41799;SDS011;27468;47.460;19.034;2022-11-20T08:25:26;28.92;;;14.18;;
41799;SDS011;27468;47.460;19.034;2022-11-20T08:27:52;26.67;;;13.60;;
41799;SDS011;27468;47.460;19.034;2022-11-20T08:30:18;28.38;;;14.43;;
41799;SDS011;27468;47.460;19.034;2022-11-20T08:32:43;29.23;;;14.02;;
41799;SDS011;27468;47.460;19.034;2022-11-20T08:35:09;29.88;;;13.75;;
41799;SDS011;27468;47.460;19.034;2022-11-20T08:37:34;26.50;;;12.45;;
41799;SDS011;27468;47.460;19.034;2022-11-20T08:39:59;24.15;;;11.90;;
41799;SDS011;27468;47.460;19.034;2022-11-20T08:42:25;25.05;;;12.38;;
41799;SDS011;27468;47.460;19.034;2022-11-20T08:44:50;27.33;;;12.65;;
41799;SDS011;27468;47.460;19.034;2022-11-20T08:47:16;26.70;;;13.20;;
41799;SDS011;27468;47.460;19.034;2022-11-20T08:49:41;25.92;;;12.70;;
41799;SDS011;27468;47.460;19.034;2022-11-20T08:52:06;26.10;;;13.60;;
41799;SDS011;27468;47.460;19.034;2022-11-20T08:54:32;28.38;;;13.05;;
41799;SDS011;27468;47.460;19.034;2022-11-20T08:56:57;28.45;;;13.68;;
41799;SDS011;27468;47.460;19.034;2022-11-20T08:59:22;27.85;;;13.00;;
41799;SDS011;27468;47.460;19.034;2022-11-20T09:01:48;28.60;;;13.48;;
41799;SDS011;27468;47.460;19.034;2022-11-20T09:04:13;29.13;;;13.50;;
41799;SDS011;27468;47.460;19.034;2022-11-20T09:06:39;27.98;;;13.40;;
41799;SDS011;27468;47.460;19.034;2022-11-20T09:09:05;25.17;;;12.63;;
41799;SDS011;27468;47.460;19.034;2022-11-20T09:11:31;30.42;;;15.48;;
41799;SDS011;27468;47.460;19.034;2022-11-20T09:13:56;31.15;;;15.80;;
41799;SDS011;27468;47.460;19.034;2022-11-20T09:16:22;31.98;;;15.68;;
41799;SDS011;27468;47.460;19.034;2022-11-20T09:18:49;29.88;;;14.55;;
41799;SDS011;27468;47.460;19.034;2022-11-20T09:21:14;27.63;;;13.52;;
41799;SDS011;27468;47.460;19.034;2022-11-20T09:23:40;29.65;;;14.45;;
41799;SDS011;27468;47.460;19.034;2022-11-20T09:26:07;25.88;;;13.65;;
41799;SDS011;27468;47.460;19.034;2022-11-20T09:28:37;25.35;;;13.48;;
41799;SDS011;27468;47.460;19.034;2022-11-20T09:31:09;26.52;;;13.60;;
41799;SDS011;27468;47.460;19.034;2022-11-20T09:33:46;26.40;;;13.35;;
41799;SDS011;27468;47.460;19.034;2022-11-20T09:36:12;26.38;;;13.48;;
41799;SDS011;27468;47.460;19.034;2022-11-20T09:38:37;24.15;;;12.88;;
41799;SDS011;27468;47.460;19.034;2022-11-20T09:41:03;24.92;;;13.10;;
41799;SDS011;27468;47.460;19.034;2022-11-20T09:54:17;26.67;;;13.25;;
41799;SDS011;27468;47.460;19.034;2022-11-20T09:56:46;24.23;;;13.52;;
41799;SDS011;27468;47.460;19.034;2022-11-20T09:59:35;26.80;;;13.18;;
41799;SDS011;27468;47.460;19.034;2022-11-20T10:02:48;24.23;;;13.02;;
41799;SDS011;27468;47.460;19.034;2022-11-20T10:05:11;24.02;;;12.95;;
41799;SDS011;27468;47.460;19.034;2022-11-20T10:24:41;25.30;;;12.80;;
41799;SDS011;27468;47.460;19.034;2022-11-20T10:27:30;26.27;;;13.80;;
41799;SDS011;27468;47.460;19.034;2022-11-20T10:30:10;26.50;;;14.30;;
41799;SDS011;27468;47.460;19.034;2022-11-20T10:32:39;26.98;;;13.50;;
41799;SDS011;27468;47.460;19.034;2022-11-20T10:37:42;24.88;;;14.25;;
41799;SDS011;27468;47.460;19.034;2022-11-20T10:43:13;28.50;;;14.52;;
41799;SDS011;27468;47.460;19.034;2022-11-20T10:48:16;27.27;;;14.85;;
41799;SDS011;27468;47.460;19.034;2022-11-20T10:50:47;30.08;;;15.65;;
41799;SDS011;27468;47.460;19.034;2022-11-20T10:53:31;29.83;;;15.02;;
41799;SDS011;27468;47.460;19.034;2022-11-20T10:56:24;28.63;;;15.90;;
41799;SDS011;27468;47.460;19.034;2022-11-20T11:01:53;27.23;;;15.07;;
41799;SDS011;27468;47.460;19.034;2022-11-20T11:04:23;26.95;;;14.73;;
41799;SDS011;27468;47.460;19.034;2022-11-20T11:07:06;29.65;;;15.52;;
41799;SDS011;27468;47.460;19.034;2022-11-20T11:09:35;31.65;;;16.13;;
41799;SDS011;27468;47.460;19.034;2022-11-20T11:12:08;31.85;;;16.38;;
41799;SDS011;27468;47.460;19.034;2022-11-20T11:14:45;31.88;;;15.50;;
41799;SDS011;27468;47.460;19.034;2022-11-20T11:17:26;30.92;;;16.08;;
41799;SDS011;27468;47.460;19.034;2022-11-20T11:20:35;30.50;;;16.45;;
41799;SDS011;27468;47.460;19.034;2022-11-20T11:22:50;30.92;;;15.73;;
41799;SDS011;27468;47.460;19.034;2022-11-20T11:25:36;28.70;;;15.85;;
41799;SDS011;27468;47.460;19.034;2022-11-20T11:30:43;26.83;;;14.95;;
41799;SDS011;27468;47.460;19.034;2022-11-20T11:33:10;28.40;;;14.93;;
41799;SDS011;27468;47.460;19.034;2022-11-20T11:35:49;28.48;;;15.05;;
41799;SDS011;27468;47.460;19.034;2022-11-20T11:41:06;28.85;;;14.60;;
41799;SDS011;27468;47.460;19.034;2022-11-20T11:43:35;26.05;;;14.43;;
41799;SDS011;27468;47.460;19.034;2022-11-20T11:49:10;30.48;;;16.05;;
41799;SDS011;27468;47.460;19.034;2022-11-20T11:54:53;30.30;;;16.25;;
41799;SDS011;27468;47.460;19.034;2022-11-20T12:05:03;29.77;;;15.75;;
41799;SDS011;27468;47.460;19.034;2022-11-20T12:10:12;29.58;;;16.17;;
41799;SDS011;27468;47.460;19.034;2022-11-20T12:12:43;30.42;;;15.50;;
41799;SDS011;27468;47.460;19.034;2022-11-20T12:15:16;31.83;;;15.80;;
41799;SDS011;27468;47.460;19.034;2022-11-20T12:17:50;28.58;;;15.13;;
41799;SDS011;27468;47.460;19.034;2022-11-20T12:20:15;30.13;;;15.43;;
41799;SDS011;27468;47.460;19.034;2022-11-20T12:25:42;23.30;;;13.00;;
41799;SDS011;27468;47.460;19.034;2022-11-20T12:28:31;20.35;;;11.05;;
41799;SDS011;27468;47.460;19.034;2022-11-20T12:31:18;20.10;;;11.32;;
41799;SDS011;27468;47.460;19.034;2022-11-20T12:34:02;20.40;;;11.40;;
41799;SDS011;27468;47.460;19.034;2022-11-20T12:36:56;23.02;;;12.52;;
41799;SDS011;27468;47.460;19.034;2022-11-20T12:39:35;24.05;;;13.45;;
41799;SDS011;27468;47.460;19.034;2022-11-20T12:47:58;26.00;;;13.00;;
41799;SDS011;27468;47.460;19.034;2022-11-20T12:50:49;25.70;;;13.70;;
41799;SDS011;27468;47.460;19.034;2022-11-20T13:01:56;24.52;;;14.10;;
41799;SDS011;27468;47.460;19.034;2022-11-20T13:07:30;24.25;;;13.23;;
41799;SDS011;27468;47.460;19.034;2022-11-20T13:09:57;24.20;;;12.52;;
41799;SDS011;27468;47.460;19.034;2022-11-20T13:12:26;24.23;;;12.88;;
41799;SDS011;27468;47.460;19.034;2022-11-20T13:20:13;24.85;;;13.60;;
41799;SDS011;27468;47.460;19.034;2022-11-20T13:22:44;25.95;;;13.20;;
41799;SDS011;27468;47.460;19.034;2022-11-20T13:28:25;25.40;;;13.63;;
41799;SDS011;27468;47.460;19.034;2022-11-20T13:30:54;23.98;;;12.77;;
41799;SDS011;27468;47.460;19.034;2022-11-20T13:33:31;26.38;;;13.55;;
41799;SDS011;27468;47.460;19.034;2022-11-20T13:38:45;26.60;;;14.05;;
41799;SDS011;27468;47.460;19.034;2022-11-20T13:41:23;28.10;;;13.63;;
41799;SDS011;27468;47.460;19.034;2022-11-20T13:43:54;27.35;;;14.88;;
41799;SDS011;27468;47.460;19.034;2022-11-20T13:46:22;24.15;;;13.23;;
41799;SDS011;27468;47.460;19.034;2022-11-20T13:48:49;27.55;;;14.07;;
41799;SDS011;27468;47.460;19.034;2022-11-20T13:51:34;27.45;;;14.10;;
41799;SDS011;27468;47.460;19.034;2022-11-20T14:00:41;26.45;;;12.93;;
41799;SDS011;27468;47.460;19.034;2022-11-20T14:02:44;26.25;;;13.43;;
41799;SDS011;27468;47.460;19.034;2022-11-20T14:05:25;27.70;;;13.45;;
41799;SDS011;27468;47.460;19.034;2022-11-20T14:07:51;25.50;;;13.38;;
41799;SDS011;27468;47.460;19.034;2022-11-20T14:10:27;27.73;;;13.63;;
41799;SDS011;27468;47.460;19.034;2022-11-20T14:12:54;32.50;;;14.57;;
41799;SDS011;27468;47.460;19.034;2022-11-20T14:15:33;31.35;;;15.23;;
41799;SDS011;27468;47.460;19.034;2022-11-20T14:17:59;31.90;;;15.85;;
41799;SDS011;27468;47.460;19.034;2022-11-20T14:20:36;29.08;;;15.00;;
41799;SDS011;27468;47.460;19.034;2022-11-20T14:23:03;30.15;;;15.23;;
41799;SDS011;27468;47.460;19.034;2022-11-20T14:25:30;33.30;;;16.33;;
41799;SDS011;27468;47.460;19.034;2022-11-20T14:27:59;32.75;;;15.63;;
41799;SDS011;27468;47.460;19.034;2022-11-20T14:30:28;39.42;;;17.80;;
41799;SDS011;27468;47.460;19.034;2022-11-20T14:33:01;31.30;;;15.13;;
41799;SDS011;27468;47.460;19.034;2022-11-20T14:35:29;26.98;;;14.43;;
41799;SDS011;27468;47.460;19.034;2022-11-20T14:38:00;29.42;;;14.52;;
41799;SDS011;27468;47.460;19.034;2022-11-20T14:42:52;31.80;;;14.55;;
41799;SDS011;27468;47.460;19.034;2022-11-20T14:45:18;30.77;;;15.50;;
41799;SDS011;27468;47.460;19.034;2022-11-20T14:47:44;30.60;;;15.13;;
41799;SDS011;27468;47.460;19.034;2022-11-20T14:50:15;35.33;;;15.95;;
41799;SDS011;27468;47.460;19.034;2022-11-20T14:52:54;31.35;;;15.77;;
41799;SDS011;27468;47.460;19.034;2022-11-20T14:55:25;32.42;;;16.45;;
41799;SDS011;27468;47.460;19.034;2022-11-20T14:57:55;32.67;;;16.52;;
41799;SDS011;27468;47.460;19.034;2022-11-20T15:00:22;31.88;;;15.50;;
41799;SDS011;27468;47.460;19.034;2022-11-20T15:02:49;29.70;;;15.10;;
41799;SDS011;27468;47.460;19.034;2022-11-20T15:05:17;27.42;;;13.65;;
41799;SDS011;27468;47.460;19.034;2022-11-20T15:07:45;30.60;;;14.70;;
41799;SDS011;27468;47.460;19.034;2022-11-20T15:10:20;32.47;;;16.33;;
41799;SDS011;27468;47.460;19.034;2022-11-20T15:12:51;33.38;;;16.08;;
41799;SDS011;27468;47.460;19.034;2022-11-20T15:17:59;34.83;;;16.00;;
41799;SDS011;27468;47.460;19.034;2022-11-20T15:20:26;35.58;;;16.75;;
41799;SDS011;27468;47.460;19.034;2022-11-20T15:22:55;34.50;;;16.15;;
41799;SDS011;27468;47.460;19.034;2022-11-20T15:25:20;37.13;;;16.88;;
41799;SDS011;27468;47.460;19.034;2022-11-20T15:27:46;36.70;;;16.50;;
41799;SDS011;27468;47.460;19.034;2022-11-20T15:30:19;40.85;;;17.73;;
41799;SDS011;27468;47.460;19.034;2022-11-20T15:32:45;43.05;;;19.08;;
41799;SDS011;27468;47.460;19.034;2022-11-20T15:35:13;42.20;;;19.65;;
41799;SDS011;27468;47.460;19.034;2022-11-20T15:37:40;42.63;;;19.33;;
41799;SDS011;27468;47.460;19.034;2022-11-20T15:40:06;41.08;;;19.02;;
41799;SDS011;27468;47.460;19.034;2022-11-20T15:42:32;45.90;;;20.98;;
41799;SDS011;27468;47.460;19.034;2022-11-20T15:44:58;53.60;;;24.40;;
41799;SDS011;27468;47.460;19.034;2022-11-20T15:47:34;50.83;;;23.17;;
41799;SDS011;27468;47.460;19.034;2022-11-20T15:50:00;51.15;;;22.67;;
41799;SDS011;27468;47.460;19.034;2022-11-20T15:52:26;45.42;;;20.67;;
41799;SDS011;27468;47.460;19.034;2022-11-20T15:54:51;54.47;;;25.25;;
41799;SDS011;27468;47.460;19.034;2022-11-20T15:57:17;57.80;;;25.10;;
41799;SDS011;27468;47.460;19.034;2022-11-20T15:59:42;56.17;;;27.58;;
41799;SDS011;27468;47.460;19.034;2022-11-20T16:02:11;79.63;;;39.00;;
41799;SDS011;27468;47.460;19.034;2022-11-20T16:04:36;64.68;;;32.40;;
41799;SDS011;27468;47.460;19.034;2022-11-20T16:07:02;88.20;;;41.78;;
41799;SDS011;27468;47.460;19.034;2022-11-20T16:09:28;95.57;;;48.15;;
41799;SDS011;27468;47.460;19.034;2022-11-20T16:11:53;75.18;;;35.40;;